createdAt,value
2024-04-04T00:00:18.000Z,444.49505615234375
2024-04-04T00:01:20.000Z,443.2236633300781
2024-04-04T00:02:22.000Z,444.1275939941406
2024-04-04T00:03:24.000Z,443.4105224609375
2024-04-04T00:04:26.000Z,442.62420654296875
2024-04-04T00:05:28.000Z,445.6466064453125
2024-04-04T00:06:31.000Z,442.4044189453125
2024-04-04T00:07:33.000Z,441.6025695800781
2024-04-04T00:08:35.000Z,441.9486389160156
2024-04-04T00:09:37.000Z,443.09844970703125
2024-04-04T00:10:39.000Z,443.8035888671875
2024-04-04T00:11:41.000Z,442.3892822265625
2024-04-04T00:12:44.000Z,442.8921813964844
2024-04-04T00:13:46.000Z,445.1111755371094
2024-04-04T00:14:48.000Z,444.39215087890625
2024-04-04T00:15:50.000Z,443.30914306640625
2024-04-04T00:16:52.000Z,445.87835693359375
2024-04-04T00:17:54.000Z,448.6935729980469
2024-04-04T00:18:56.000Z,449.9588317871094
2024-04-04T00:19:59.000Z,448.3264465332031
2024-04-04T00:21:01.000Z,449.44854736328125
2024-04-04T00:22:03.000Z,453.1009521484375
2024-04-04T00:23:05.000Z,453.2587585449219
2024-04-04T00:24:07.000Z,452.5295715332031
2024-04-04T00:25:09.000Z,451.1152648925781
2024-04-04T00:26:11.000Z,449.73187255859375
2024-04-04T00:27:14.000Z,446.7044982910156
2024-04-04T00:28:16.000Z,448.6380920410156
2024-04-04T00:29:18.000Z,449.3018798828125
2024-04-04T00:30:20.000Z,448.56982421875
2024-04-04T00:31:22.000Z,448.1422424316406
2024-04-04T00:32:24.000Z,446.7209777832031
2024-04-04T00:33:27.000Z,445.4752502441406
2024-04-04T00:34:29.000Z,444.27764892578125
2024-04-04T00:35:31.000Z,443.94171142578125
2024-04-04T00:36:33.000Z,443.3114929199219
2024-04-04T00:37:35.000Z,445.3687744140625
2024-04-04T00:38:37.000Z,447.0752868652344
2024-04-04T00:39:39.000Z,448.5738525390625
2024-04-04T00:40:42.000Z,448.6571044921875
2024-04-04T00:41:44.000Z,447.0704345703125
2024-04-04T00:42:46.000Z,448.3550109863281
2024-04-04T00:43:48.000Z,447.8995666503906
2024-04-04T00:44:50.000Z,447.0792236328125
2024-04-04T00:45:52.000Z,445.7904968261719
2024-04-04T00:46:55.000Z,444.2616271972656
2024-04-04T00:47:57.000Z,444.4141540527344
2024-04-04T00:48:59.000Z,443.906982421875
2024-04-04T00:50:01.000Z,441.78057861328125
2024-04-04T00:51:03.000Z,441.1729736328125
2024-04-04T00:52:05.000Z,444.77520751953125
2024-04-04T00:53:07.000Z,445.0121765136719
2024-04-04T00:54:10.000Z,444.553955078125
2024-04-04T00:55:12.000Z,443.5345458984375
2024-04-04T00:56:14.000Z,442.4046325683594
2024-04-04T00:57:16.000Z,441.2845458984375
2024-04-04T00:58:18.000Z,443.01666259765625
2024-04-04T00:59:21.000Z,442.75592041015625
2024-04-04T01:00:23.000Z,442.4433898925781
2024-04-04T01:01:25.000Z,439.09234619140625
2024-04-04T01:02:27.000Z,438.9513854980469
2024-04-04T01:03:29.000Z,438.7343444824219
2024-04-04T01:04:31.000Z,439.4324645996094
2024-04-04T01:05:33.000Z,438.26873779296875
2024-04-04T01:06:35.000Z,441.30828857421875
2024-04-04T01:07:38.000Z,438.7537841796875
2024-04-04T01:08:40.000Z,438.6800231933594
2024-04-04T01:09:42.000Z,440.1922607421875
2024-04-04T01:10:44.000Z,442.0754699707031
2024-04-04T01:11:46.000Z,442.3395690917969
2024-04-04T01:12:48.000Z,445.7065124511719
2024-04-04T01:13:51.000Z,446.4632873535156
2024-04-04T01:14:53.000Z,447.65826416015625
2024-04-04T01:15:55.000Z,447.114501953125
2024-04-04T01:16:57.000Z,447.11883544921875
2024-04-04T01:17:59.000Z,446.59954833984375
2024-04-04T01:19:01.000Z,445.8268127441406
2024-04-04T01:20:03.000Z,446.7588195800781
2024-04-04T01:21:05.000Z,446.0935363769531
2024-04-04T01:22:08.000Z,444.66302490234375
2024-04-04T01:23:10.000Z,443.7598571777344
2024-04-04T01:24:12.000Z,442.97979736328125
2024-04-04T01:25:14.000Z,442.959716796875
2024-04-04T01:26:16.000Z,442.074462890625
2024-04-04T01:27:18.000Z,443.0988464355469
2024-04-04T01:28:21.000Z,442.95257568359375
2024-04-04T01:29:23.000Z,442.30078125
2024-04-04T01:30:25.000Z,443.5533142089844
2024-04-04T01:31:27.000Z,444.1786193847656
2024-04-04T01:32:29.000Z,445.07391357421875
2024-04-04T01:33:32.000Z,443.668212890625
2024-04-04T01:34:34.000Z,442.89862060546875
2024-04-04T01:35:36.000Z,443.4635314941406
2024-04-04T01:36:38.000Z,447.3172302246094
2024-04-04T01:37:40.000Z,449.4652404785156
2024-04-04T01:38:42.000Z,448.7330322265625
2024-04-04T01:39:44.000Z,449.8532409667969
2024-04-04T01:40:47.000Z,449.02166748046875
2024-04-04T01:41:49.000Z,447.4413757324219
2024-04-04T01:42:51.000Z,446.6552429199219
2024-04-04T01:43:53.000Z,445.455322265625
2024-04-04T01:44:55.000Z,443.5416564941406
2024-04-04T01:45:57.000Z,442.7848815917969
2024-04-04T01:46:59.000Z,442.2154846191406
2024-04-04T01:48:01.000Z,441.8298645019531
2024-04-04T01:49:04.000Z,440.7926330566406
2024-04-04T01:50:06.000Z,436.36041259765625
2024-04-04T01:51:08.000Z,438.4711608886719
2024-04-04T01:52:10.000Z,439.8249816894531
2024-04-04T01:53:12.000Z,441.5277099609375
2024-04-04T01:54:14.000Z,442.2366943359375
2024-04-04T01:55:16.000Z,441.66143798828125
2024-04-04T01:56:19.000Z,440.9772033691406
2024-04-04T01:57:21.000Z,441.1597900390625
2024-04-04T01:58:23.000Z,442.8464050292969
2024-04-04T01:59:25.000Z,445.40618896484375
2024-04-04T02:00:27.000Z,445.5497741699219
2024-04-04T02:01:29.000Z,448.3482971191406
2024-04-04T02:02:32.000Z,449.6116943359375
2024-04-04T02:03:34.000Z,449.66058349609375
2024-04-04T02:04:36.000Z,447.6331481933594
2024-04-04T02:05:38.000Z,448.2675476074219
2024-04-04T02:06:40.000Z,446.4710693359375
2024-04-04T02:07:42.000Z,446.34857177734375
2024-04-04T02:08:44.000Z,445.08135986328125
2024-04-04T02:09:47.000Z,443.8304138183594
2024-04-04T02:10:49.000Z,443.7551574707031
2024-04-04T02:11:51.000Z,445.01904296875
2024-04-04T02:12:53.000Z,441.8424072265625
2024-04-04T02:13:55.000Z,441.5245361328125
2024-04-04T02:14:57.000Z,443.1938781738281
2024-04-04T02:16:00.000Z,443.78662109375
2024-04-04T02:17:02.000Z,442.01043701171875
2024-04-04T02:18:04.000Z,442.34320068359375
2024-04-04T02:19:06.000Z,443.5975646972656
2024-04-04T02:20:08.000Z,444.6697082519531
2024-04-04T02:21:10.000Z,445.6154479980469
2024-04-04T02:22:12.000Z,442.7373962402344
2024-04-04T02:23:15.000Z,441.1381530761719
2024-04-04T02:24:17.000Z,438.6661682128906
2024-04-04T02:25:19.000Z,438.2003173828125
2024-04-04T02:26:21.000Z,439.83587646484375
2024-04-04T02:27:23.000Z,442.0591735839844
2024-04-04T02:28:25.000Z,443.11590576171875
2024-04-04T02:29:27.000Z,445.4432067871094
2024-04-04T02:30:30.000Z,446.6900329589844
2024-04-04T02:31:32.000Z,446.7456970214844
2024-04-04T02:32:34.000Z,446.2857360839844
2024-04-04T02:33:36.000Z,444.2565612792969
2024-04-04T02:34:38.000Z,442.8638000488281
2024-04-04T02:35:41.000Z,442.46856689453125
2024-04-04T02:36:43.000Z,443.1396484375
2024-04-04T02:37:45.000Z,444.1045837402344
2024-04-04T02:38:47.000Z,446.17138671875
2024-04-04T02:39:49.000Z,445.1606750488281
2024-04-04T02:40:51.000Z,443.1899719238281
2024-04-04T02:41:53.000Z,436.3442687988281
2024-04-04T02:42:56.000Z,435.4840087890625
2024-04-04T02:43:58.000Z,439.0235290527344
2024-04-04T02:45:00.000Z,438.4423828125
2024-04-04T02:46:02.000Z,438.7747497558594
2024-04-04T02:47:04.000Z,440.56719970703125
2024-04-04T02:48:06.000Z,440.1041259765625
2024-04-04T02:49:09.000Z,437.56768798828125
2024-04-04T02:50:11.000Z,437.6187744140625
2024-04-04T02:51:13.000Z,438.3365783691406
2024-04-04T02:52:15.000Z,438.15191650390625
2024-04-04T02:53:17.000Z,436.62176513671875
2024-04-04T02:54:19.000Z,435.2389831542969
2024-04-04T02:55:21.000Z,435.37188720703125
2024-04-04T02:56:24.000Z,438.0815734863281
2024-04-04T02:57:26.000Z,436.92730712890625
2024-04-04T02:58:28.000Z,435.1931457519531
2024-04-04T02:59:30.000Z,434.1731262207031
2024-04-04T03:00:32.000Z,434.89910888671875
2024-04-04T03:01:34.000Z,434.1781921386719
2024-04-04T03:02:36.000Z,432.0453796386719
2024-04-04T03:03:39.000Z,433.3106689453125
2024-04-04T03:04:41.000Z,431.97320556640625
2024-04-04T03:05:43.000Z,431.5355529785156
2024-04-04T03:06:45.000Z,432.18310546875
2024-04-04T03:07:47.000Z,432.0970764160156
2024-04-04T03:08:50.000Z,433.68133544921875
2024-04-04T03:09:52.000Z,433.5217590332031
2024-04-04T03:10:54.000Z,433.9830627441406
2024-04-04T03:11:56.000Z,434.7862854003906
2024-04-04T03:12:58.000Z,434.4363708496094
2024-04-04T03:14:00.000Z,432.2422790527344
2024-04-04T03:15:03.000Z,433.9226379394531
2024-04-04T03:16:05.000Z,436.08087158203125
2024-04-04T03:17:07.000Z,435.1241149902344
2024-04-04T03:18:09.000Z,435.6376037597656
2024-04-04T03:19:11.000Z,436.47076416015625
2024-04-04T03:20:13.000Z,437.0414123535156
2024-04-04T03:21:16.000Z,437.2638854980469
2024-04-04T03:22:18.000Z,438.4071960449219
2024-04-04T03:23:20.000Z,439.0308532714844
2024-04-04T03:24:22.000Z,438.9400939941406
2024-04-04T03:25:24.000Z,440.31597900390625
2024-04-04T03:26:26.000Z,438.4379577636719
2024-04-04T03:27:28.000Z,435.9516296386719
2024-04-04T03:28:31.000Z,436.1279296875
2024-04-04T03:29:33.000Z,438.5877685546875
2024-04-04T03:30:35.000Z,441.04852294921875
2024-04-04T03:31:37.000Z,441.5140686035156
2024-04-04T03:32:39.000Z,444.0088195800781
2024-04-04T03:33:41.000Z,444.6156005859375
2024-04-04T03:34:44.000Z,444.7823181152344
2024-04-04T03:35:46.000Z,443.1578674316406
2024-04-04T03:36:48.000Z,441.8301086425781
2024-04-04T03:37:50.000Z,439.2781066894531
2024-04-04T03:38:52.000Z,439.0146789550781
2024-04-04T03:39:54.000Z,438.70501708984375
2024-04-04T03:40:56.000Z,440.61920166015625
2024-04-04T03:41:59.000Z,441.77117919921875
2024-04-04T03:43:01.000Z,443.39459228515625
2024-04-04T03:44:03.000Z,443.26531982421875
2024-04-04T03:45:05.000Z,440.70184326171875
2024-04-04T03:46:07.000Z,438.90765380859375
2024-04-04T03:47:10.000Z,438.9206848144531
2024-04-04T03:48:12.000Z,438.044921875
2024-04-04T03:49:14.000Z,437.9120178222656
2024-04-04T03:50:16.000Z,440.4283447265625
2024-04-04T03:51:18.000Z,440.70477294921875
2024-04-04T03:52:20.000Z,440.07879638671875
2024-04-04T03:53:23.000Z,439.76171875
2024-04-04T03:54:25.000Z,439.6977233886719
2024-04-04T03:55:27.000Z,437.7325744628906
2024-04-04T03:56:29.000Z,436.0386657714844
2024-04-04T03:57:31.000Z,437.44451904296875
2024-04-04T03:58:33.000Z,438.02984619140625
2024-04-04T03:59:35.000Z,436.6127014160156
2024-04-04T04:00:37.000Z,431.305419921875
2024-04-04T04:01:40.000Z,433.8930358886719
2024-04-04T04:02:42.000Z,435.5915832519531
2024-04-04T04:03:44.000Z,435.0525207519531
2024-04-04T04:04:46.000Z,433.49969482421875
2024-04-04T04:05:48.000Z,433.30535888671875
2024-04-04T04:06:50.000Z,434.9732360839844
2024-04-04T04:07:53.000Z,433.8786926269531
2024-04-04T04:08:55.000Z,434.25396728515625
2024-04-04T04:09:57.000Z,433.6705322265625
2024-04-04T04:10:59.000Z,434.30548095703125
2024-04-04T04:12:01.000Z,435.1416320800781
2024-04-04T04:13:03.000Z,433.4682312011719
2024-04-04T04:14:06.000Z,434.15460205078125
2024-04-04T04:15:08.000Z,433.3616943359375
2024-04-04T04:16:10.000Z,431.5577392578125
2024-04-04T04:17:12.000Z,431.35418701171875
2024-04-04T04:18:14.000Z,433.5346374511719
2024-04-04T04:19:16.000Z,434.6151123046875
2024-04-04T04:20:19.000Z,435.42315673828125
2024-04-04T04:21:21.000Z,434.0601501464844
2024-04-04T04:22:23.000Z,433.56256103515625
2024-04-04T04:23:25.000Z,433.8619384765625
2024-04-04T04:24:27.000Z,433.23388671875
2024-04-04T04:25:29.000Z,433.3097229003906
2024-04-04T04:26:31.000Z,432.9599914550781
2024-04-04T04:27:34.000Z,434.906982421875
2024-04-04T04:28:36.000Z,434.09796142578125
2024-04-04T04:29:38.000Z,434.27069091796875
2024-04-04T04:30:40.000Z,434.4199523925781
2024-04-04T04:31:42.000Z,434.0983581542969
2024-04-04T04:32:44.000Z,434.0370788574219
2024-04-04T04:33:46.000Z,436.75970458984375
2024-04-04T04:34:49.000Z,435.9550476074219
2024-04-04T04:35:51.000Z,437.3840637207031
2024-04-04T04:36:53.000Z,440.3251037597656
2024-04-04T04:37:55.000Z,438.9533996582031
2024-04-04T04:38:57.000Z,440.5720520019531
2024-04-04T04:39:59.000Z,440.56689453125
2024-04-04T04:41:01.000Z,441.5179138183594
2024-04-04T04:42:04.000Z,442.74102783203125
2024-04-04T04:43:06.000Z,441.4895935058594
2024-04-04T04:44:08.000Z,440.5265197753906
2024-04-04T04:45:10.000Z,439.93206787109375
2024-04-04T04:46:12.000Z,438.9195251464844
2024-04-04T04:47:14.000Z,436.88983154296875
2024-04-04T04:48:17.000Z,436.6357116699219
2024-04-04T04:49:19.000Z,435.81396484375
2024-04-04T04:50:21.000Z,437.6832580566406
2024-04-04T04:51:23.000Z,436.28155517578125
2024-04-04T04:52:25.000Z,436.7693176269531
2024-04-04T04:53:27.000Z,438.4962463378906
2024-04-04T04:54:30.000Z,436.8254699707031
2024-04-04T04:55:32.000Z,436.9332580566406
2024-04-04T04:56:34.000Z,433.9099426269531
2024-04-04T04:57:36.000Z,433.9429626464844
2024-04-04T04:58:38.000Z,433.0968322753906
2024-04-04T04:59:40.000Z,431.47137451171875
2024-04-04T05:00:43.000Z,432.580078125
2024-04-04T05:01:45.000Z,431.92510986328125
2024-04-04T05:02:47.000Z,433.46392822265625
2024-04-04T05:03:49.000Z,435.47344970703125
2024-04-04T05:04:51.000Z,438.4751892089844
2024-04-04T05:05:53.000Z,440.1763610839844
2024-04-04T05:06:56.000Z,440.1214904785156
2024-04-04T05:07:58.000Z,437.2528076171875
2024-04-04T05:09:00.000Z,438.5386657714844
2024-04-04T05:10:02.000Z,436.45867919921875
2024-04-04T05:11:04.000Z,435.3480224609375
2024-04-04T05:12:06.000Z,436.362060546875
2024-04-04T05:13:08.000Z,437.9052429199219
2024-04-04T05:14:11.000Z,438.49908447265625
2024-04-04T05:15:13.000Z,437.6352844238281
2024-04-04T05:16:15.000Z,438.5287170410156
2024-04-04T05:17:17.000Z,437.16693115234375
2024-04-04T05:18:19.000Z,436.89190673828125
2024-04-04T05:19:21.000Z,434.6864929199219
2024-04-04T05:20:24.000Z,435.18634033203125
2024-04-04T05:21:26.000Z,433.9801940917969
2024-04-04T05:22:28.000Z,434.935546875
2024-04-04T05:23:30.000Z,434.61224365234375
2024-04-04T05:24:32.000Z,433.78338623046875
2024-04-04T05:25:34.000Z,434.3289794921875
2024-04-04T05:26:36.000Z,434.564453125
2024-04-04T05:27:39.000Z,434.7853698730469
2024-04-04T05:28:41.000Z,434.5141906738281
2024-04-04T05:29:43.000Z,434.983642578125
2024-04-04T05:30:45.000Z,432.2259216308594
2024-04-04T05:31:47.000Z,431.5909729003906
2024-04-04T05:32:49.000Z,433.2487487792969
2024-04-04T05:33:51.000Z,434.2259216308594
2024-04-04T05:34:54.000Z,432.28741455078125
2024-04-04T05:35:56.000Z,432.8908996582031
2024-04-04T05:36:58.000Z,433.9198303222656
2024-04-04T05:38:00.000Z,435.08807373046875
2024-04-04T05:39:02.000Z,436.1763610839844
2024-04-04T05:40:04.000Z,436.6117248535156
2024-04-04T05:41:07.000Z,437.3341064453125
2024-04-04T05:42:09.000Z,434.99859619140625
2024-04-04T05:43:11.000Z,433.2796630859375
2024-04-04T05:44:13.000Z,432.129150390625
2024-04-04T05:45:15.000Z,435.6846008300781
2024-04-04T05:46:18.000Z,437.90362548828125
2024-04-04T05:47:20.000Z,437.30999755859375
2024-04-04T05:48:22.000Z,438.48638916015625
2024-04-04T05:49:24.000Z,438.3392028808594
2024-04-04T05:50:26.000Z,435.7482604980469
2024-04-04T05:51:28.000Z,434.2887268066406
2024-04-04T05:52:31.000Z,434.650634765625
2024-04-04T05:53:33.000Z,434.2607727050781
2024-04-04T05:54:35.000Z,435.1254577636719
2024-04-04T05:55:37.000Z,434.0333557128906
2024-04-04T05:56:39.000Z,433.5317687988281
2024-04-04T05:57:41.000Z,433.67578125
2024-04-04T05:58:43.000Z,434.6532897949219
2024-04-04T05:59:46.000Z,434.7510070800781
2024-04-04T06:00:48.000Z,432.3162536621094
2024-04-04T06:01:50.000Z,434.8452453613281
2024-04-04T06:02:52.000Z,435.64703369140625
2024-04-04T06:03:54.000Z,433.953369140625
2024-04-04T06:04:56.000Z,433.5627136230469
2024-04-04T06:05:58.000Z,433.46124267578125
2024-04-04T06:07:01.000Z,434.8494567871094
2024-04-04T06:08:03.000Z,434.7129821777344
2024-04-04T06:09:05.000Z,435.2684020996094
2024-04-04T06:10:07.000Z,433.71246337890625
2024-04-04T06:11:09.000Z,433.41827392578125
2024-04-04T06:12:11.000Z,434.15313720703125
2024-04-04T06:13:13.000Z,435.4753723144531
2024-04-04T06:14:16.000Z,435.2038269042969
2024-04-04T06:15:18.000Z,435.7524719238281
2024-04-04T06:16:20.000Z,437.4852294921875
2024-04-04T06:17:22.000Z,437.32666015625
2024-04-04T06:18:24.000Z,435.5556945800781
2024-04-04T06:19:26.000Z,433.9292297363281
2024-04-04T06:20:29.000Z,433.3992004394531
2024-04-04T06:21:31.000Z,437.043212890625
2024-04-04T06:22:33.000Z,437.5896301269531
2024-04-04T06:23:35.000Z,438.9601745605469
2024-04-04T06:24:37.000Z,438.40655517578125
2024-04-04T06:25:39.000Z,438.5257263183594
2024-04-04T06:26:41.000Z,440.1506042480469
2024-04-04T06:27:44.000Z,440.186279296875
2024-04-04T06:28:46.000Z,438.9116516113281
2024-04-04T06:29:48.000Z,438.11737060546875
2024-04-04T06:30:50.000Z,438.3136291503906
2024-04-04T06:31:52.000Z,436.5992431640625
2024-04-04T06:32:54.000Z,435.4752197265625
2024-04-04T06:33:57.000Z,432.8922424316406
2024-04-04T06:34:59.000Z,432.68682861328125
2024-04-04T06:36:01.000Z,430.0775451660156
2024-04-04T06:37:03.000Z,428.1681823730469
2024-04-04T06:38:05.000Z,426.923583984375
2024-04-04T06:39:07.000Z,426.0506591796875
2024-04-04T06:40:10.000Z,427.23553466796875
2024-04-04T06:41:12.000Z,430.8420104980469
2024-04-04T06:42:14.000Z,431.6579284667969
2024-04-04T06:43:16.000Z,432.22314453125
2024-04-04T06:44:18.000Z,432.3359375
2024-04-04T06:45:21.000Z,431.93084716796875
2024-04-04T06:46:23.000Z,434.0311279296875
2024-04-04T06:47:25.000Z,434.6639099121094
2024-04-04T06:48:27.000Z,434.99847412109375
2024-04-04T06:49:29.000Z,435.2876892089844
2024-04-04T06:50:31.000Z,433.6990661621094
2024-04-04T06:51:34.000Z,432.916259765625
2024-04-04T06:52:36.000Z,432.5165100097656
2024-04-04T06:53:38.000Z,433.16070556640625
2024-04-04T06:54:40.000Z,435.5744934082031
2024-04-04T06:55:42.000Z,435.92303466796875
2024-04-04T06:56:44.000Z,434.50506591796875
2024-04-04T06:57:47.000Z,434.3515930175781
2024-04-04T06:58:49.000Z,433.8492736816406
2024-04-04T06:59:51.000Z,435.5762023925781
2024-04-04T07:00:53.000Z,434.6885986328125
2024-04-04T07:01:55.000Z,434.7329406738281
2024-04-04T07:02:57.000Z,434.2820129394531
2024-04-04T07:03:59.000Z,432.2935791015625
2024-04-04T07:05:02.000Z,432.6929016113281
2024-04-04T07:06:04.000Z,434.5399169921875
2024-04-04T07:07:06.000Z,437.53643798828125
2024-04-04T07:08:08.000Z,435.9693908691406
2024-04-04T07:09:10.000Z,436.5238037109375
2024-04-04T07:10:12.000Z,434.7400817871094
2024-04-04T07:11:15.000Z,433.6321105957031
2024-04-04T07:12:17.000Z,433.6498718261719
2024-04-04T07:13:19.000Z,432.25250244140625
2024-04-04T07:14:21.000Z,431.89874267578125
2024-04-04T07:15:23.000Z,431.2107849121094
2024-04-04T07:16:25.000Z,429.3258056640625
2024-04-04T07:17:28.000Z,429.7687072753906
2024-04-04T07:18:30.000Z,429.6251525878906
2024-04-04T07:19:32.000Z,428.3480529785156
2024-04-04T07:20:34.000Z,428.33831787109375
2024-04-04T07:21:36.000Z,427.2967224121094
2024-04-04T07:22:38.000Z,426.15380859375
2024-04-04T07:23:40.000Z,425.3934020996094
2024-04-04T07:24:43.000Z,426.5473327636719
2024-04-04T07:25:45.000Z,427.64642333984375
2024-04-04T07:26:47.000Z,428.322509765625
2024-04-04T07:27:49.000Z,430.2448425292969
2024-04-04T07:28:51.000Z,430.3215026855469
2024-04-04T07:29:53.000Z,430.38433837890625
2024-04-04T07:30:56.000Z,428.17315673828125
2024-04-04T07:31:58.000Z,429.3355712890625
2024-04-04T07:33:00.000Z,429.86163330078125
2024-04-04T07:34:02.000Z,427.24334716796875
2024-04-04T07:35:04.000Z,426.55047607421875
2024-04-04T07:36:06.000Z,423.7876892089844
2024-04-04T07:37:09.000Z,424.42333984375
2024-04-04T07:38:11.000Z,421.8927001953125
2024-04-04T07:39:13.000Z,421.67095947265625
2024-04-04T07:40:15.000Z,421.0242919921875
2024-04-04T07:41:17.000Z,422.4154357910156
2024-04-04T07:42:19.000Z,422.9100036621094
2024-04-04T07:43:22.000Z,425.0827941894531
2024-04-04T07:44:24.000Z,425.1167297363281
2024-04-04T07:45:26.000Z,425.0072326660156
2024-04-04T07:46:28.000Z,426.38385009765625
2024-04-04T07:47:30.000Z,425.6591796875
2024-04-04T07:48:32.000Z,424.91845703125
2024-04-04T07:49:35.000Z,423.8740234375
2024-04-04T07:50:37.000Z,421.6864013671875
2024-04-04T07:51:39.000Z,417.34307861328125
2024-04-04T07:52:41.000Z,416.4611511230469
2024-04-04T07:53:43.000Z,416.94097900390625
2024-04-04T07:54:45.000Z,418.03179931640625
2024-04-04T07:55:47.000Z,417.9186096191406
2024-04-04T07:56:50.000Z,418.8703308105469
2024-04-04T07:57:52.000Z,419.5161437988281
2024-04-04T07:58:54.000Z,418.7809753417969
2024-04-04T07:59:56.000Z,416.27667236328125
2024-04-04T08:00:58.000Z,420.17645263671875
2024-04-04T08:02:00.000Z,422.1931457519531
2024-04-04T08:03:03.000Z,421.4360656738281
2024-04-04T08:04:05.000Z,418.5657958984375
2024-04-04T08:05:07.000Z,418.31451416015625
2024-04-04T08:06:09.000Z,417.90631103515625
2024-04-04T08:07:11.000Z,418.2915344238281
2024-04-04T08:08:13.000Z,418.38861083984375
2024-04-04T08:09:15.000Z,419.4657897949219
2024-04-04T08:10:18.000Z,420.04290771484375
2024-04-04T08:11:20.000Z,415.8321533203125
2024-04-04T08:12:22.000Z,414.89453125
2024-04-04T08:13:24.000Z,416.9848937988281
2024-04-04T08:14:26.000Z,416.0144348144531
2024-04-04T08:15:28.000Z,418.5939636230469
2024-04-04T08:16:31.000Z,419.0675354003906
2024-04-04T08:17:33.000Z,418.2804260253906
2024-04-04T08:18:35.000Z,417.8527526855469
2024-04-04T08:19:37.000Z,419.54986572265625
2024-04-04T08:20:39.000Z,418.4093933105469
2024-04-04T08:21:41.000Z,417.68182373046875
2024-04-04T08:22:44.000Z,418.9383850097656
2024-04-04T08:23:46.000Z,418.9526062011719
2024-04-04T08:24:48.000Z,420.1660461425781
2024-04-04T08:25:50.000Z,421.34661865234375
2024-04-04T08:26:52.000Z,420.7089538574219
2024-04-04T08:27:54.000Z,421.00274658203125
2024-04-04T08:28:56.000Z,422.8067626953125
2024-04-04T08:29:59.000Z,423.00213623046875
2024-04-04T08:31:01.000Z,423.5841979980469
2024-04-04T08:32:03.000Z,422.0792541503906
2024-04-04T08:33:05.000Z,423.7810363769531
2024-04-04T08:34:07.000Z,425.1318359375
2024-04-04T08:35:09.000Z,425.7356872558594
2024-04-04T08:36:11.000Z,424.5653076171875
2024-04-04T08:37:13.000Z,424.5744934082031
2024-04-04T08:38:16.000Z,422.80194091796875
2024-04-04T08:39:18.000Z,422.0103759765625
2024-04-04T08:40:20.000Z,424.78814697265625
2024-04-04T08:41:22.000Z,425.6805725097656
2024-04-04T08:42:24.000Z,426.112548828125
2024-04-04T08:43:26.000Z,426.5205383300781
2024-04-04T08:44:29.000Z,423.87298583984375
2024-04-04T08:45:31.000Z,424.0602111816406
2024-04-04T08:46:33.000Z,423.99688720703125
2024-04-04T08:47:35.000Z,427.470947265625
2024-04-04T08:48:37.000Z,425.39288330078125
2024-04-04T08:49:39.000Z,424.88421630859375
2024-04-04T08:50:41.000Z,426.6449279785156
2024-04-04T08:51:44.000Z,423.6394958496094
2024-04-04T08:52:46.000Z,423.1920166015625
2024-04-04T08:53:48.000Z,419.0419921875
2024-04-04T08:54:50.000Z,419.9270324707031
2024-04-04T08:55:52.000Z,419.27294921875
2024-04-04T08:56:54.000Z,419.2796630859375
2024-04-04T08:57:56.000Z,419.1376647949219
2024-04-04T08:58:59.000Z,418.4181823730469
2024-04-04T09:00:01.000Z,418.61468505859375
2024-04-04T09:01:03.000Z,420.65643310546875
2024-04-04T09:02:05.000Z,419.7395935058594
2024-04-04T09:03:07.000Z,419.9375
2024-04-04T09:04:09.000Z,418.02099609375
2024-04-04T09:05:12.000Z,418.1161804199219
2024-04-04T09:06:14.000Z,417.0101318359375
2024-04-04T09:07:16.000Z,417.649169921875
2024-04-04T09:08:18.000Z,418.64056396484375
2024-04-04T09:09:20.000Z,421.8331604003906
2024-04-04T09:10:22.000Z,422.23779296875
2024-04-04T09:11:25.000Z,424.19659423828125
2024-04-04T09:12:27.000Z,424.2931823730469
2024-04-04T09:13:29.000Z,422.60137939453125
2024-04-04T09:14:31.000Z,423.0382385253906
2024-04-04T09:15:33.000Z,423.7149353027344
2024-04-04T09:16:35.000Z,424.3327331542969
2024-04-04T09:17:37.000Z,422.9384765625
2024-04-04T09:18:40.000Z,422.13934326171875
2024-04-04T09:19:42.000Z,421.81024169921875
2024-04-04T09:20:44.000Z,420.1918640136719
2024-04-04T09:21:46.000Z,419.44110107421875
2024-04-04T09:22:48.000Z,417.7205505371094
2024-04-04T09:23:50.000Z,417.2646484375
2024-04-04T09:24:53.000Z,416.589599609375
2024-04-04T09:25:55.000Z,417.0702209472656
2024-04-04T09:26:57.000Z,418.9328918457031
2024-04-04T09:27:59.000Z,419.0749206542969
2024-04-04T09:29:01.000Z,420.02410888671875
2024-04-04T09:30:03.000Z,419.5128479003906
2024-04-04T09:31:05.000Z,420.5163879394531
2024-04-04T09:32:08.000Z,420.08599853515625
2024-04-04T09:33:10.000Z,420.62457275390625
2024-04-04T09:34:12.000Z,418.47845458984375
2024-04-04T09:35:14.000Z,418.8418884277344
2024-04-04T09:36:16.000Z,418.58074951171875